sensor_id;sensor_type;location;lat;lon;timestamp;P1;durP1;ratioP1;P2;durP2;ratioP2
19998;SDS011;10160;50.926;4.374;2023-08-17T00:00:47;11.35;;;2.88;;
19998;SDS011;10160;50.926;4.374;2023-08-17T00:03:12;6.82;;;2.28;;
19998;SDS011;10160;50.926;4.374;2023-08-17T00:05:39;9.57;;;2.78;;
19998;SDS011;10160;50.926;4.374;2023-08-17T00:08:05;8.55;;;2.38;;
19998;SDS011;10160;50.926;4.374;2023-08-17T00:10:31;10.70;;;3.63;;
19998;SDS011;10160;50.926;4.374;2023-08-17T00:12:57;5.43;;;2.35;;
19998;SDS011;10160;50.926;4.374;2023-08-17T00:15:23;6.65;;;2.38;;
19998;SDS011;10160;50.926;4.374;2023-08-17T00:17:48;4.50;;;2.20;;
19998;SDS011;10160;50.926;4.374;2023-08-17T00:20:14;5.50;;;2.63;;
19998;SDS011;10160;50.926;4.374;2023-08-17T00:22:40;6.13;;;2.40;;
19998;SDS011;10160;50.926;4.374;2023-08-17T00:25:09;9.20;;;3.22;;
19998;SDS011;10160;50.926;4.374;2023-08-17T00:27:35;8.65;;;2.80;;
19998;SDS011;10160;50.926;4.374;2023-08-17T00:30:00;6.20;;;2.25;;
19998;SDS011;10160;50.926;4.374;2023-08-17T00:32:26;6.43;;;2.40;;
19998;SDS011;10160;50.926;4.374;2023-08-17T00:34:52;7.30;;;2.72;;
19998;SDS011;10160;50.926;4.374;2023-08-17T00:37:18;7.18;;;2.80;;
19998;SDS011;10160;50.926;4.374;2023-08-17T00:39:44;10.52;;;2.63;;
19998;SDS011;10160;50.926;4.374;2023-08-17T00:42:09;5.07;;;2.53;;
19998;SDS011;10160;50.926;4.374;2023-08-17T00:44:35;5.75;;;2.65;;
19998;SDS011;10160;50.926;4.374;2023-08-17T00:47:10;11.70;;;3.00;;
19998;SDS011;10160;50.926;4.374;2023-08-17T00:49:35;7.28;;;2.92;;
19998;SDS011;10160;50.926;4.374;2023-08-17T00:52:01;5.60;;;2.67;;
19998;SDS011;10160;50.926;4.374;2023-08-17T00:54:30;5.82;;;2.72;;
19998;SDS011;10160;50.926;4.374;2023-08-17T00:57:02;7.07;;;2.88;;
19998;SDS011;10160;50.926;4.374;2023-08-17T00:59:31;7.30;;;3.03;;
19998;SDS011;10160;50.926;4.374;2023-08-17T01:02:00;6.18;;;2.72;;
19998;SDS011;10160;50.926;4.374;2023-08-17T01:04:26;8.00;;;3.30;;
19998;SDS011;10160;50.926;4.374;2023-08-17T01:06:58;7.75;;;2.72;;
19998;SDS011;10160;50.926;4.374;2023-08-17T01:09:24;7.95;;;2.92;;
19998;SDS011;10160;50.926;4.374;2023-08-17T01:12:00;5.45;;;2.90;;
19998;SDS011;10160;50.926;4.374;2023-08-17T01:14:39;7.72;;;3.30;;
19998;SDS011;10160;50.926;4.374;2023-08-17T01:17:22;11.00;;;3.25;;
19998;SDS011;10160;50.926;4.374;2023-08-17T01:19:52;6.32;;;2.90;;
19998;SDS011;10160;50.926;4.374;2023-08-17T01:22:21;10.02;;;3.55;;
19998;SDS011;10160;50.926;4.374;2023-08-17T01:24:54;9.50;;;3.72;;
19998;SDS011;10160;50.926;4.374;2023-08-17T01:27:22;7.32;;;3.25;;
19998;SDS011;10160;50.926;4.374;2023-08-17T01:29:50;7.68;;;3.08;;
19998;SDS011;10160;50.926;4.374;2023-08-17T01:32:24;8.27;;;3.40;;
19998;SDS011;10160;50.926;4.374;2023-08-17T01:35:24;6.95;;;3.60;;
19998;SDS011;10160;50.926;4.374;2023-08-17T01:38:11;8.30;;;3.20;;
19998;SDS011;10160;50.926;4.374;2023-08-17T01:40:39;6.47;;;3.70;;
19998;SDS011;10160;50.926;4.374;2023-08-17T01:43:07;6.68;;;3.00;;
19998;SDS011;10160;50.926;4.374;2023-08-17T01:45:34;6.78;;;3.38;;
19998;SDS011;10160;50.926;4.374;2023-08-17T01:48:00;5.25;;;3.00;;
19998;SDS011;10160;50.926;4.374;2023-08-17T01:50:26;5.68;;;3.15;;
19998;SDS011;10160;50.926;4.374;2023-08-17T01:52:54;8.65;;;2.95;;
19998;SDS011;10160;50.926;4.374;2023-08-17T01:55:21;10.00;;;2.90;;
19998;SDS011;10160;50.926;4.374;2023-08-17T01:57:48;7.28;;;3.45;;
19998;SDS011;10160;50.926;4.374;2023-08-17T02:00:14;9.23;;;3.47;;
19998;SDS011;10160;50.926;4.374;2023-08-17T02:02:40;5.60;;;3.05;;
19998;SDS011;10160;50.926;4.374;2023-08-17T02:05:06;7.10;;;3.30;;
19998;SDS011;10160;50.926;4.374;2023-08-17T02:07:32;6.63;;;3.05;;
19998;SDS011;10160;50.926;4.374;2023-08-17T02:09:58;6.75;;;2.90;;
19998;SDS011;10160;50.926;4.374;2023-08-17T02:12:24;7.15;;;3.10;;
19998;SDS011;10160;50.926;4.374;2023-08-17T02:14:49;9.85;;;3.17;;
19998;SDS011;10160;50.926;4.374;2023-08-17T02:17:18;6.00;;;3.25;;
19998;SDS011;10160;50.926;4.374;2023-08-17T02:19:46;7.10;;;3.30;;
19998;SDS011;10160;50.926;4.374;2023-08-17T02:22:15;8.80;;;3.47;;
19998;SDS011;10160;50.926;4.374;2023-08-17T02:24:41;13.60;;;3.53;;
19998;SDS011;10160;50.926;4.374;2023-08-17T02:27:10;8.50;;;3.22;;
19998;SDS011;10160;50.926;4.374;2023-08-17T02:29:35;6.68;;;3.00;;
19998;SDS011;10160;50.926;4.374;2023-08-17T02:32:04;8.23;;;3.45;;
19998;SDS011;10160;50.926;4.374;2023-08-17T02:34:30;8.80;;;3.42;;
19998;SDS011;10160;50.926;4.374;2023-08-17T02:36:56;9.13;;;3.72;;
19998;SDS011;10160;50.926;4.374;2023-08-17T02:39:21;10.30;;;3.72;;
19998;SDS011;10160;50.926;4.374;2023-08-17T02:41:47;7.22;;;3.08;;
19998;SDS011;10160;50.926;4.374;2023-08-17T02:44:14;9.32;;;3.53;;
19998;SDS011;10160;50.926;4.374;2023-08-17T02:46:40;10.40;;;4.13;;
19998;SDS011;10160;50.926;4.374;2023-08-17T02:49:06;10.90;;;3.50;;
19998;SDS011;10160;50.926;4.374;2023-08-17T02:51:31;15.15;;;4.05;;
19998;SDS011;10160;50.926;4.374;2023-08-17T02:53:57;7.57;;;3.55;;
19998;SDS011;10160;50.926;4.374;2023-08-17T02:56:23;7.40;;;3.67;;
19998;SDS011;10160;50.926;4.374;2023-08-17T02:58:48;9.45;;;3.33;;
19998;SDS011;10160;50.926;4.374;2023-08-17T03:01:14;9.70;;;3.50;;
19998;SDS011;10160;50.926;4.374;2023-08-17T03:03:42;8.10;;;3.90;;
19998;SDS011;10160;50.926;4.374;2023-08-17T03:06:08;9.65;;;3.88;;
19998;SDS011;10160;50.926;4.374;2023-08-17T03:08:34;9.68;;;3.58;;
19998;SDS011;10160;50.926;4.374;2023-08-17T03:11:02;5.68;;;3.60;;
19998;SDS011;10160;50.926;4.374;2023-08-17T03:13:28;8.65;;;3.80;;
19998;SDS011;10160;50.926;4.374;2023-08-17T03:15:54;10.05;;;3.70;;
19998;SDS011;10160;50.926;4.374;2023-08-17T03:18:19;9.25;;;3.58;;
19998;SDS011;10160;50.926;4.374;2023-08-17T03:20:45;9.23;;;3.50;;
19998;SDS011;10160;50.926;4.374;2023-08-17T03:23:14;5.90;;;3.47;;
19998;SDS011;10160;50.926;4.374;2023-08-17T03:25:39;8.43;;;3.45;;
19998;SDS011;10160;50.926;4.374;2023-08-17T03:28:05;9.45;;;4.00;;
19998;SDS011;10160;50.926;4.374;2023-08-17T03:30:31;12.50;;;3.83;;
19998;SDS011;10160;50.926;4.374;2023-08-17T03:32:57;12.45;;;3.53;;
19998;SDS011;10160;50.926;4.374;2023-08-17T03:35:22;8.60;;;3.17;;
19998;SDS011;10160;50.926;4.374;2023-08-17T03:37:48;10.77;;;4.00;;
19998;SDS011;10160;50.926;4.374;2023-08-17T03:40:19;8.55;;;3.38;;
19998;SDS011;10160;50.926;4.374;2023-08-17T03:42:45;8.48;;;3.30;;
19998;SDS011;10160;50.926;4.374;2023-08-17T03:45:10;8.98;;;3.58;;
19998;SDS011;10160;50.926;4.374;2023-08-17T03:47:39;11.93;;;3.85;;
19998;SDS011;10160;50.926;4.374;2023-08-17T03:50:05;8.65;;;3.75;;
19998;SDS011;10160;50.926;4.374;2023-08-17T03:52:34;10.98;;;3.83;;
19998;SDS011;10160;50.926;4.374;2023-08-17T03:54:59;9.65;;;3.97;;
19998;SDS011;10160;50.926;4.374;2023-08-17T03:57:30;6.63;;;3.70;;
19998;SDS011;10160;50.926;4.374;2023-08-17T03:59:56;8.05;;;3.65;;
19998;SDS011;10160;50.926;4.374;2023-08-17T04:02:22;11.80;;;3.88;;
19998;SDS011;10160;50.926;4.374;2023-08-17T04:04:47;7.72;;;3.13;;
19998;SDS011;10160;50.926;4.374;2023-08-17T04:07:14;8.82;;;3.55;;
19998;SDS011;10160;50.926;4.374;2023-08-17T04:09:46;9.60;;;3.63;;
19998;SDS011;10160;50.926;4.374;2023-08-17T04:12:12;8.55;;;3.70;;
19998;SDS011;10160;50.926;4.374;2023-08-17T04:14:37;6.35;;;3.47;;
19998;SDS011;10160;50.926;4.374;2023-08-17T04:17:03;7.35;;;3.30;;
19998;SDS011;10160;50.926;4.374;2023-08-17T04:19:29;8.13;;;3.90;;
19998;SDS011;10160;50.926;4.374;2023-08-17T04:21:57;10.75;;;3.72;;
19998;SDS011;10160;50.926;4.374;2023-08-17T04:24:23;8.38;;;3.63;;
19998;SDS011;10160;50.926;4.374;2023-08-17T04:26:49;9.27;;;3.67;;
19998;SDS011;10160;50.926;4.374;2023-08-17T04:29:18;8.98;;;3.90;;
19998;SDS011;10160;50.926;4.374;2023-08-17T04:31:43;11.77;;;3.65;;
19998;SDS011;10160;50.926;4.374;2023-08-17T04:34:13;8.77;;;4.15;;
19998;SDS011;10160;50.926;4.374;2023-08-17T04:36:39;9.88;;;3.80;;
19998;SDS011;10160;50.926;4.374;2023-08-17T04:39:04;10.38;;;3.70;;
19998;SDS011;10160;50.926;4.374;2023-08-17T04:41:30;12.13;;;3.92;;
19998;SDS011;10160;50.926;4.374;2023-08-17T04:43:59;15.57;;;3.97;;
19998;SDS011;10160;50.926;4.374;2023-08-17T04:46:24;10.75;;;3.60;;
19998;SDS011;10160;50.926;4.374;2023-08-17T04:48:53;10.50;;;3.55;;
19998;SDS011;10160;50.926;4.374;2023-08-17T04:51:18;9.55;;;3.80;;
19998;SDS011;10160;50.926;4.374;2023-08-17T04:53:44;10.00;;;3.97;;
19998;SDS011;10160;50.926;4.374;2023-08-17T04:56:09;9.88;;;3.35;;
19998;SDS011;10160;50.926;4.374;2023-08-17T04:58:35;10.20;;;3.60;;
19998;SDS011;10160;50.926;4.374;2023-08-17T05:01:01;14.30;;;3.50;;
19998;SDS011;10160;50.926;4.374;2023-08-17T05:03:26;12.27;;;3.92;;
19998;SDS011;10160;50.926;4.374;2023-08-17T05:05:52;10.27;;;3.17;;
19998;SDS011;10160;50.926;4.374;2023-08-17T05:08:18;13.95;;;3.97;;
19998;SDS011;10160;50.926;4.374;2023-08-17T05:10:44;6.65;;;3.10;;
19998;SDS011;10160;50.926;4.374;2023-08-17T05:13:09;8.32;;;3.33;;
19998;SDS011;10160;50.926;4.374;2023-08-17T05:15:35;9.18;;;3.45;;
19998;SDS011;10160;50.926;4.374;2023-08-17T05:18:01;11.55;;;3.20;;
19998;SDS011;10160;50.926;4.374;2023-08-17T05:20:27;10.50;;;3.35;;
19998;SDS011;10160;50.926;4.374;2023-08-17T05:22:52;9.80;;;3.50;;
19998;SDS011;10160;50.926;4.374;2023-08-17T05:25:18;13.45;;;4.43;;
19998;SDS011;10160;50.926;4.374;2023-08-17T05:27:44;8.55;;;3.60;;
19998;SDS011;10160;50.926;4.374;2023-08-17T05:30:09;6.60;;;3.08;;
19998;SDS011;10160;50.926;4.374;2023-08-17T05:32:35;9.40;;;3.88;;
19998;SDS011;10160;50.926;4.374;2023-08-17T05:35:01;9.90;;;3.17;;
19998;SDS011;10160;50.926;4.374;2023-08-17T05:37:27;8.38;;;3.53;;
19998;SDS011;10160;50.926;4.374;2023-08-17T05:39:52;12.05;;;3.60;;
19998;SDS011;10160;50.926;4.374;2023-08-17T05:42:18;8.57;;;3.72;;
19998;SDS011;10160;50.926;4.374;2023-08-17T05:44:44;9.68;;;3.08;;
19998;SDS011;10160;50.926;4.374;2023-08-17T05:47:10;7.13;;;3.55;;
19998;SDS011;10160;50.926;4.374;2023-08-17T05:49:36;7.30;;;3.30;;
19998;SDS011;10160;50.926;4.374;2023-08-17T05:52:03;10.75;;;3.70;;
19998;SDS011;10160;50.926;4.374;2023-08-17T05:54:28;8.05;;;3.20;;
19998;SDS011;10160;50.926;4.374;2023-08-17T05:56:54;15.05;;;3.78;;
19998;SDS011;10160;50.926;4.374;2023-08-17T05:59:20;12.70;;;3.83;;
19998;SDS011;10160;50.926;4.374;2023-08-17T06:01:45;7.32;;;3.50;;
19998;SDS011;10160;50.926;4.374;2023-08-17T06:04:11;10.05;;;3.42;;
19998;SDS011;10160;50.926;4.374;2023-08-17T06:06:40;10.18;;;3.85;;
19998;SDS011;10160;50.926;4.374;2023-08-17T06:09:06;10.20;;;3.40;;
19998;SDS011;10160;50.926;4.374;2023-08-17T06:11:33;10.10;;;3.63;;
19998;SDS011;10160;50.926;4.374;2023-08-17T06:13:59;10.10;;;3.55;;
19998;SDS011;10160;50.926;4.374;2023-08-17T06:16:24;6.85;;;3.22;;
19998;SDS011;10160;50.926;4.374;2023-08-17T06:18:50;10.27;;;3.28;;
19998;SDS011;10160;50.926;4.374;2023-08-17T06:21:16;9.30;;;3.30;;
19998;SDS011;10160;50.926;4.374;2023-08-17T06:23:42;7.15;;;3.15;;
19998;SDS011;10160;50.926;4.374;2023-08-17T06:26:07;9.27;;;4.13;;
19998;SDS011;10160;50.926;4.374;2023-08-17T06:28:33;11.38;;;3.28;;
19998;SDS011;10160;50.926;4.374;2023-08-17T06:30:59;11.18;;;3.28;;
19998;SDS011;10160;50.926;4.374;2023-08-17T06:33:24;9.93;;;3.70;;
19998;SDS011;10160;50.926;4.374;2023-08-17T06:35:50;8.55;;;3.08;;
19998;SDS011;10160;50.926;4.374;2023-08-17T06:38:16;10.93;;;3.13;;
19998;SDS011;10160;50.926;4.374;2023-08-17T06:40:42;10.32;;;3.25;;
19998;SDS011;10160;50.926;4.374;2023-08-17T06:43:08;7.60;;;3.50;;
19998;SDS011;10160;50.926;4.374;2023-08-17T06:45:34;12.35;;;4.05;;
19998;SDS011;10160;50.926;4.374;2023-08-17T06:48:00;11.55;;;3.80;;
19998;SDS011;10160;50.926;4.374;2023-08-17T06:50:29;9.80;;;3.78;;
19998;SDS011;10160;50.926;4.374;2023-08-17T06:52:57;8.73;;;3.25;;
19998;SDS011;10160;50.926;4.374;2023-08-17T06:55:23;11.68;;;3.80;;
19998;SDS011;10160;50.926;4.374;2023-08-17T06:57:49;8.43;;;3.42;;
19998;SDS011;10160;50.926;4.374;2023-08-17T07:00:17;12.98;;;4.25;;
19998;SDS011;10160;50.926;4.374;2023-08-17T07:02:45;15.68;;;4.28;;
19998;SDS011;10160;50.926;4.374;2023-08-17T07:05:13;12.55;;;4.00;;
19998;SDS011;10160;50.926;4.374;2023-08-17T07:07:40;16.38;;;4.35;;
19998;SDS011;10160;50.926;4.374;2023-08-17T07:10:07;15.13;;;4.32;;
19998;SDS011;10160;50.926;4.374;2023-08-17T07:12:33;8.45;;;4.50;;
19998;SDS011;10160;50.926;4.374;2023-08-17T07:14:59;7.90;;;4.13;;
19998;SDS011;10160;50.926;4.374;2023-08-17T07:17:24;16.40;;;4.70;;
19998;SDS011;10160;50.926;4.374;2023-08-17T07:19:50;14.38;;;5.07;;
19998;SDS011;10160;50.926;4.374;2023-08-17T07:22:16;12.10;;;4.55;;
19998;SDS011;10160;50.926;4.374;2023-08-17T07:24:42;12.18;;;4.70;;
19998;SDS011;10160;50.926;4.374;2023-08-17T07:27:08;19.00;;;5.07;;
19998;SDS011;10160;50.926;4.374;2023-08-17T07:29:34;13.77;;;5.40;;
19998;SDS011;10160;50.926;4.374;2023-08-17T07:31:59;15.50;;;5.80;;
19998;SDS011;10160;50.926;4.374;2023-08-17T07:34:30;18.30;;;5.82;;
19998;SDS011;10160;50.926;4.374;2023-08-17T07:36:56;21.73;;;8.38;;
19998;SDS011;10160;50.926;4.374;2023-08-17T07:39:22;20.55;;;7.13;;
19998;SDS011;10160;50.926;4.374;2023-08-17T07:41:51;15.82;;;7.45;;
19998;SDS011;10160;50.926;4.374;2023-08-17T07:44:16;15.45;;;6.95;;
19998;SDS011;10160;50.926;4.374;2023-08-17T07:46:42;14.35;;;6.15;;
19998;SDS011;10160;50.926;4.374;2023-08-17T07:49:08;15.20;;;6.07;;
19998;SDS011;10160;50.926;4.374;2023-08-17T07:51:38;12.32;;;5.97;;
19998;SDS011;10160;50.926;4.374;2023-08-17T07:54:04;19.88;;;5.70;;
19998;SDS011;10160;50.926;4.374;2023-08-17T07:56:29;16.55;;;6.18;;
19998;SDS011;10160;50.926;4.374;2023-08-17T07:58:55;20.98;;;7.55;;
19998;SDS011;10160;50.926;4.374;2023-08-17T08:01:21;20.02;;;7.50;;
19998;SDS011;10160;50.926;4.374;2023-08-17T08:03:47;18.65;;;6.88;;
19998;SDS011;10160;50.926;4.374;2023-08-17T08:06:12;20.73;;;7.82;;
19998;SDS011;10160;50.926;4.374;2023-08-17T08:08:39;25.67;;;7.68;;
19998;SDS011;10160;50.926;4.374;2023-08-17T08:11:05;19.67;;;6.97;;
19998;SDS011;10160;50.926;4.374;2023-08-17T08:13:31;13.95;;;6.07;;
19998;SDS011;10160;50.926;4.374;2023-08-17T08:15:58;12.10;;;5.68;;
19998;SDS011;10160;50.926;4.374;2023-08-17T08:18:24;14.93;;;5.55;;
19998;SDS011;10160;50.926;4.374;2023-08-17T08:20:50;16.15;;;4.60;;
19998;SDS011;10160;50.926;4.374;2023-08-17T08:23:15;15.75;;;5.60;;
19998;SDS011;10160;50.926;4.374;2023-08-17T08:25:41;12.15;;;4.35;;
19998;SDS011;10160;50.926;4.374;2023-08-17T08:28:07;12.55;;;4.72;;
19998;SDS011;10160;50.926;4.374;2023-08-17T08:30:33;9.98;;;4.32;;
19998;SDS011;10160;50.926;4.374;2023-08-17T08:33:02;11.02;;;4.22;;
19998;SDS011;10160;50.926;4.374;2023-08-17T08:35:28;9.23;;;3.92;;
19998;SDS011;10160;50.926;4.374;2023-08-17T08:37:54;8.90;;;3.83;;
19998;SDS011;10160;50.926;4.374;2023-08-17T08:40:26;12.65;;;4.15;;
19998;SDS011;10160;50.926;4.374;2023-08-17T08:42:53;13.30;;;4.50;;
19998;SDS011;10160;50.926;4.374;2023-08-17T08:45:22;10.40;;;3.88;;
19998;SDS011;10160;50.926;4.374;2023-08-17T08:47:48;9.20;;;4.18;;
19998;SDS011;10160;50.926;4.374;2023-08-17T08:50:20;9.45;;;4.20;;
19998;SDS011;10160;50.926;4.374;2023-08-17T08:53:10;9.52;;;4.47;;
19998;SDS011;10160;50.926;4.374;2023-08-17T08:55:39;10.80;;;4.82;;
19998;SDS011;10160;50.926;4.374;2023-08-17T08:58:12;10.73;;;4.55;;
19998;SDS011;10160;50.926;4.374;2023-08-17T09:00:40;16.25;;;4.88;;
19998;SDS011;10160;50.926;4.374;2023-08-17T09:03:07;13.90;;;4.72;;
19998;SDS011;10160;50.926;4.374;2023-08-17T09:05:34;11.27;;;4.80;;
19998;SDS011;10160;50.926;4.374;2023-08-17T09:08:01;11.88;;;4.20;;
19998;SDS011;10160;50.926;4.374;2023-08-17T09:10:27;9.63;;;5.03;;
19998;SDS011;10160;50.926;4.374;2023-08-17T09:12:53;12.60;;;4.60;;
19998;SDS011;10160;50.926;4.374;2023-08-17T09:15:19;10.25;;;4.35;;
19998;SDS011;10160;50.926;4.374;2023-08-17T09:17:44;11.75;;;4.90;;
19998;SDS011;10160;50.926;4.374;2023-08-17T09:20:17;13.38;;;5.45;;
19998;SDS011;10160;50.926;4.374;2023-08-17T09:23:09;10.00;;;4.20;;
19998;SDS011;10160;50.926;4.374;2023-08-17T09:25:38;11.98;;;5.80;;
19998;SDS011;10160;50.926;4.374;2023-08-17T09:28:08;9.75;;;3.88;;
19998;SDS011;10160;50.926;4.374;2023-08-17T09:33:32;8.90;;;4.20;;
19998;SDS011;10160;50.926;4.374;2023-08-17T09:35:58;11.80;;;4.82;;
19998;SDS011;10160;50.926;4.374;2023-08-17T09:38:25;15.52;;;5.07;;
19998;SDS011;10160;50.926;4.374;2023-08-17T09:40:51;14.48;;;5.35;;
19998;SDS011;10160;50.926;4.374;2023-08-17T09:43:18;9.90;;;4.40;;
19998;SDS011;10160;50.926;4.374;2023-08-17T09:45:46;11.68;;;4.85;;
19998;SDS011;10160;50.926;4.374;2023-08-17T09:48:15;11.15;;;5.20;;
19998;SDS011;10160;50.926;4.374;2023-08-17T09:50:43;16.25;;;6.35;;
19998;SDS011;10160;50.926;4.374;2023-08-17T09:53:27;11.02;;;6.13;;
19998;SDS011;10160;50.926;4.374;2023-08-17T09:55:53;21.40;;;7.15;;
19998;SDS011;10160;50.926;4.374;2023-08-17T09:58:20;14.50;;;6.25;;
19998;SDS011;10160;50.926;4.374;2023-08-17T10:00:46;10.75;;;5.15;;
19998;SDS011;10160;50.926;4.374;2023-08-17T10:03:17;10.52;;;5.88;;
19998;SDS011;10160;50.926;4.374;2023-08-17T10:05:45;11.25;;;6.25;;
19998;SDS011;10160;50.926;4.374;2023-08-17T10:08:16;15.10;;;6.05;;
19998;SDS011;10160;50.926;4.374;2023-08-17T10:10:46;13.10;;;5.38;;
19998;SDS011;10160;50.926;4.374;2023-08-17T10:13:16;10.18;;;5.13;;
19998;SDS011;10160;50.926;4.374;2023-08-17T10:16:12;12.77;;;5.68;;
19998;SDS011;10160;50.926;4.374;2023-08-17T10:18:55;11.68;;;6.03;;
19998;SDS011;10160;50.926;4.374;2023-08-17T10:24:07;12.32;;;5.70;;
19998;SDS011;10160;50.926;4.374;2023-08-17T10:26:33;12.63;;;6.18;;
19998;SDS011;10160;50.926;4.374;2023-08-17T10:28:59;18.30;;;5.95;;
19998;SDS011;10160;50.926;4.374;2023-08-17T10:31:28;11.88;;;5.80;;
19998;SDS011;10160;50.926;4.374;2023-08-17T10:33:54;12.48;;;5.90;;
19998;SDS011;10160;50.926;4.374;2023-08-17T10:36:22;14.52;;;6.00;;
19998;SDS011;10160;50.926;4.374;2023-08-17T10:39:17;9.80;;;5.28;;
19998;SDS011;10160;50.926;4.374;2023-08-17T10:41:48;11.05;;;6.43;;
19998;SDS011;10160;50.926;4.374;2023-08-17T10:44:17;11.10;;;6.57;;
19998;SDS011;10160;50.926;4.374;2023-08-17T10:47:19;15.38;;;6.28;;
19998;SDS011;10160;50.926;4.374;2023-08-17T10:49:51;12.80;;;6.07;;
19998;SDS011;10160;50.926;4.374;2023-08-17T10:52:30;10.40;;;5.20;;
19998;SDS011;10160;50.926;4.374;2023-08-17T10:55:08;10.48;;;5.40;;
19998;SDS011;10160;50.926;4.374;2023-08-17T10:57:41;11.63;;;5.32;;
19998;SDS011;10160;50.926;4.374;2023-08-17T11:00:19;14.52;;;5.32;;
19998;SDS011;10160;50.926;4.374;2023-08-17T11:05:41;11.88;;;6.20;;
19998;SDS011;10160;50.926;4.374;2023-08-17T11:08:21;15.95;;;7.22;;
19998;SDS011;10160;50.926;4.374;2023-08-17T11:13:43;13.02;;;7.47;;
19998;SDS011;10160;50.926;4.374;2023-08-17T11:16:13;14.73;;;7.57;;
19998;SDS011;10160;50.926;4.374;2023-08-17T11:18:40;21.48;;;8.60;;
19998;SDS011;10160;50.926;4.374;2023-08-17T11:21:09;20.40;;;7.60;;
19998;SDS011;10160;50.926;4.374;2023-08-17T11:23:36;15.30;;;6.88;;
19998;SDS011;10160;50.926;4.374;2023-08-17T11:26:02;12.55;;;6.00;;
19998;SDS011;10160;50.926;4.374;2023-08-17T11:28:32;11.50;;;6.75;;
19998;SDS011;10160;50.926;4.374;2023-08-17T11:31:06;14.30;;;7.55;;
19998;SDS011;10160;50.926;4.374;2023-08-17T11:33:36;14.75;;;6.80;;
19998;SDS011;10160;50.926;4.374;2023-08-17T11:36:04;17.80;;;8.18;;
19998;SDS011;10160;50.926;4.374;2023-08-17T11:38:35;18.15;;;8.45;;
19998;SDS011;10160;50.926;4.374;2023-08-17T11:41:03;18.42;;;7.97;;
19998;SDS011;10160;50.926;4.374;2023-08-17T11:43:29;15.80;;;7.78;;
19998;SDS011;10160;50.926;4.374;2023-08-17T11:45:57;14.40;;;7.93;;
19998;SDS011;10160;50.926;4.374;2023-08-17T11:48:24;15.63;;;8.52;;
19998;SDS011;10160;50.926;4.374;2023-08-17T11:50:51;16.00;;;8.20;;
19998;SDS011;10160;50.926;4.374;2023-08-17T11:53:17;19.33;;;8.75;;
19998;SDS011;10160;50.926;4.374;2023-08-17T11:55:43;19.02;;;8.43;;
19998;SDS011;10160;50.926;4.374;2023-08-17T11:58:08;16.45;;;8.40;;
19998;SDS011;10160;50.926;4.374;2023-08-17T12:00:35;15.00;;;8.95;;
19998;SDS011;10160;50.926;4.374;2023-08-17T12:03:05;17.30;;;8.70;;
19998;SDS011;10160;50.926;4.374;2023-08-17T12:05:32;16.17;;;9.00;;
19998;SDS011;10160;50.926;4.374;2023-08-17T12:08:00;18.50;;;8.43;;
19998;SDS011;10160;50.926;4.374;2023-08-17T12:10:27;18.52;;;9.27;;
19998;SDS011;10160;50.926;4.374;2023-08-17T12:12:57;12.10;;;7.85;;
19998;SDS011;10160;50.926;4.374;2023-08-17T12:15:32;16.35;;;7.47;;
19998;SDS011;10160;50.926;4.374;2023-08-17T12:17:59;14.52;;;8.00;;
19998;SDS011;10160;50.926;4.374;2023-08-17T12:20:27;16.85;;;9.82;;
19998;SDS011;10160;50.926;4.374;2023-08-17T12:22:53;15.80;;;9.10;;
19998;SDS011;10160;50.926;4.374;2023-08-17T12:25:21;20.52;;;8.88;;
19998;SDS011;10160;50.926;4.374;2023-08-17T12:27:48;15.80;;;8.25;;
19998;SDS011;10160;50.926;4.374;2023-08-17T12:30:20;17.35;;;10.20;;
19998;SDS011;10160;50.926;4.374;2023-08-17T12:33:00;20.92;;;10.52;;
19998;SDS011;10160;50.926;4.374;2023-08-17T12:35:26;22.55;;;10.77;;
19998;SDS011;10160;50.926;4.374;2023-08-17T12:37:52;18.88;;;11.13;;
19998;SDS011;10160;50.926;4.374;2023-08-17T12:40:18;24.33;;;10.82;;
19998;SDS011;10160;50.926;4.374;2023-08-17T12:42:45;26.90;;;10.50;;
19998;SDS011;10160;50.926;4.374;2023-08-17T12:45:11;29.00;;;10.35;;
19998;SDS011;10160;50.926;4.374;2023-08-17T12:47:37;20.23;;;9.25;;
19998;SDS011;10160;50.926;4.374;2023-08-17T12:50:05;25.95;;;11.30;;
19998;SDS011;10160;50.926;4.374;2023-08-17T12:52:31;22.23;;;10.15;;
19998;SDS011;10160;50.926;4.374;2023-08-17T12:54:57;18.15;;;11.50;;
19998;SDS011;10160;50.926;4.374;2023-08-17T12:57:23;18.65;;;12.00;;
19998;SDS011;10160;50.926;4.374;2023-08-17T12:59:49;18.77;;;11.95;;
19998;SDS011;10160;50.926;4.374;2023-08-17T13:02:15;24.40;;;12.88;;
19998;SDS011;10160;50.926;4.374;2023-08-17T13:04:41;21.92;;;12.10;;
19998;SDS011;10160;50.926;4.374;2023-08-17T13:07:07;27.42;;;12.70;;
19998;SDS011;10160;50.926;4.374;2023-08-17T13:09:33;26.20;;;12.43;;
19998;SDS011;10160;50.926;4.374;2023-08-17T13:11:58;25.05;;;12.73;;
19998;SDS011;10160;50.926;4.374;2023-08-17T13:14:24;22.17;;;11.65;;
19998;SDS011;10160;50.926;4.374;2023-08-17T13:16:50;23.38;;;12.07;;
19998;SDS011;10160;50.926;4.374;2023-08-17T13:19:17;28.13;;;12.80;;
19998;SDS011;10160;50.926;4.374;2023-08-17T13:21:43;24.30;;;11.65;;
19998;SDS011;10160;50.926;4.374;2023-08-17T13:24:09;21.13;;;12.35;;
19998;SDS011;10160;50.926;4.374;2023-08-17T13:26:34;22.65;;;12.07;;
19998;SDS011;10160;50.926;4.374;2023-08-17T13:29:00;22.45;;;12.93;;
19998;SDS011;10160;50.926;4.374;2023-08-17T13:31:26;22.65;;;13.32;;
19998;SDS011;10160;50.926;4.374;2023-08-17T13:33:52;23.85;;;13.55;;
19998;SDS011;10160;50.926;4.374;2023-08-17T13:36:18;23.60;;;13.52;;
19998;SDS011;10160;50.926;4.374;2023-08-17T13:38:44;25.38;;;13.75;;
19998;SDS011;10160;50.926;4.374;2023-08-17T13:41:10;26.17;;;14.77;;
19998;SDS011;10160;50.926;4.374;2023-08-17T13:43:36;24.35;;;13.57;;
19998;SDS011;10160;50.926;4.374;2023-08-17T13:46:02;24.40;;;14.27;;
19998;SDS011;10160;50.926;4.374;2023-08-17T13:48:28;20.90;;;13.32;;
19998;SDS011;10160;50.926;4.374;2023-08-17T13:50:53;18.08;;;12.90;;
19998;SDS011;10160;50.926;4.374;2023-08-17T13:53:19;22.40;;;12.05;;
19998;SDS011;10160;50.926;4.374;2023-08-17T13:55:53;22.00;;;12.93;;
19998;SDS011;10160;50.926;4.374;2023-08-17T13:58:19;23.65;;;13.02;;
19998;SDS011;10160;50.926;4.374;2023-08-17T14:00:45;24.40;;;12.27;;
19998;SDS011;10160;50.926;4.374;2023-08-17T14:03:10;26.17;;;11.93;;
19998;SDS011;10160;50.926;4.374;2023-08-17T14:05:36;21.88;;;12.57;;
19998;SDS011;10160;50.926;4.374;2023-08-17T14:08:02;21.08;;;10.63;;
19998;SDS011;10160;50.926;4.374;2023-08-17T14:10:29;19.75;;;10.43;;
19998;SDS011;10160;50.926;4.374;2023-08-17T14:12:55;19.13;;;10.88;;
19998;SDS011;10160;50.926;4.374;2023-08-17T14:15:20;20.95;;;10.38;;
19998;SDS011;10160;50.926;4.374;2023-08-17T14:17:47;17.33;;;10.23;;
19998;SDS011;10160;50.926;4.374;2023-08-17T14:20:13;17.75;;;11.27;;
19998;SDS011;10160;50.926;4.374;2023-08-17T14:22:39;18.40;;;11.15;;
19998;SDS011;10160;50.926;4.374;2023-08-17T14:25:05;20.92;;;11.43;;
19998;SDS011;10160;50.926;4.374;2023-08-17T14:27:31;20.40;;;11.13;;
19998;SDS011;10160;50.926;4.374;2023-08-17T14:29:57;17.15;;;10.20;;
19998;SDS011;10160;50.926;4.374;2023-08-17T14:32:26;19.30;;;9.82;;
19998;SDS011;10160;50.926;4.374;2023-08-17T14:34:55;17.25;;;10.60;;
19998;SDS011;10160;50.926;4.374;2023-08-17T14:37:21;18.83;;;11.18;;
19998;SDS011;10160;50.926;4.374;2023-08-17T14:39:46;22.92;;;11.50;;
19998;SDS011;10160;50.926;4.374;2023-08-17T14:42:12;19.65;;;10.23;;
19998;SDS011;10160;50.926;4.374;2023-08-17T14:44:38;17.33;;;10.55;;
19998;SDS011;10160;50.926;4.374;2023-08-17T14:47:03;21.77;;;10.73;;
19998;SDS011;10160;50.926;4.374;2023-08-17T14:49:29;20.05;;;10.45;;
19998;SDS011;10160;50.926;4.374;2023-08-17T14:51:55;17.92;;;10.15;;